Time;durP1;ratioP1;P1;durP2;ratioP2;P2;SDS_P1;SDS_P2;PMS_P1;PMS_P2;Temp;Humidity;BMP_temperature;BMP_pressure;BME280_temperature;BME280_humidity;BME280_pressure;Samples;Min_cycle;Max_cycle;Signal;HPM_P1;HPM_P2
2024/03/02 00:00:21;;;;;;;8.25;2.28;;;6.10;99.90;;;5.34;100.00;99149.59;4185225;28;20104;-80
2024/03/02 00:02:22;;;;;;;11.63;1.80;;;6.10;99.90;;;5.24;100.00;99141.06;4186310;28;20027;-80
2024/03/02 00:04:23;;;;;;;8.88;1.73;;;6.10;99.90;;;5.29;100.00;99154.47;4189859;28;20029;-80
2024/03/02 00:06:24;;;;;;;7.90;2.08;;;6.00;99.90;;;5.22;100.00;99143.84;4197600;28;20078;-80
2024/03/02 00:08:28;;;;;;;4.20;1.35;;;6.00;99.90;;;5.15;100.00;99137.63;4197299;28;20033;-80
2024/03/02 00:10:41;;;;;;;8.35;2.25;;;6.00;99.90;;;5.14;100.00;99151.66;4190821;28;20052;-80
2024/03/02 00:12:42;;;;;;;13.73;1.98;;;6.00;99.90;;;5.10;100.00;99142.53;4188740;28;20480;-80
2024/03/02 00:14:43;;;;;;;7.15;1.65;;;5.90;99.90;;;5.11;100.00;99138.91;4185449;28;20519;-79
2024/03/02 00:16:44;;;;;;;7.13;1.45;;;5.90;99.90;;;5.07;100.00;99129.78;4185198;28;20027;-79
2024/03/02 00:18:44;;;;;;;8.48;2.10;;;5.90;99.90;;;5.01;100.00;99127.81;4185007;28;20120;-79
2024/03/02 00:20:46;;;;;;;6.78;1.98;;;5.80;99.90;;;4.93;100.00;99119.91;4183919;28;20478;-80
2024/03/02 00:22:46;;;;;;;14.38;1.77;;;5.80;99.90;;;5.07;100.00;99134.19;4197069;28;20543;-79
2024/03/02 00:24:47;;;;;;;11.60;1.90;;;5.90;99.90;;;5.10;100.00;99142.53;4190215;28;20032;-80
2024/03/02 00:26:48;;;;;;;12.57;2.17;;;5.90;99.90;;;5.17;100.00;99134.88;4183729;28;20074;-82
2024/03/02 00:28:50;;;;;;;9.23;2.28;;;6.00;99.90;;;5.28;100.00;99137.97;4201516;28;20074;-80
2024/03/02 00:31:14;;;;;;;11.15;1.48;;;6.00;99.90;;;5.41;100.00;99148.75;4200319;28;20021;-80
2024/03/02 00:33:15;;;;;;;11.65;3.08;;;6.10;99.90;;;5.50;100.00;99139.94;4200378;28;20032;-79
2024/03/02 00:35:23;;;;;;;12.60;2.15;;;6.20;99.90;;;5.66;100.00;99139.13;4205178;28;20059;-79
2024/03/02 00:37:24;;;;;;;12.68;1.70;;;6.30;99.90;;;5.66;100.00;99130.47;4198328;28;20025;-79
2024/03/02 00:39:25;;;;;;;12.52;2.55;;;6.40;99.90;;;5.65;100.00;99124.41;4184957;28;20033;-79
2024/03/02 00:41:32;;;;;;;12.25;2.72;;;6.30;99.90;;;5.58;100.00;99128.69;4184827;28;20025;-79
2024/03/02 00:44:11;;;;;;;15.25;2.25;;;6.30;99.90;;;5.56;100.00;99123.59;4193839;28;20025;-80
2024/03/02 00:46:15;;;;;;;12.00;3.35;;;6.30;99.90;;;5.63;100.00;99126.38;4176495;28;20120;-79
2024/03/02 00:48:16;;;;;;;11.75;3.30;;;6.30;99.90;;;5.69;100.00;99125.72;4198126;28;20035;-79
2024/03/02 00:50:17;;;;;;;13.15;3.35;;;6.40;99.90;;;5.71;100.00;99118.53;4204359;28;20055;-79
2024/03/02 00:52:18;;;;;;;14.13;3.75;;;6.40;99.90;;;5.65;100.00;99115.75;4204685;28;20119;-79
2024/03/02 00:54:23;;;;;;;11.70;2.15;;;6.30;99.90;;;5.55;100.00;99114.09;4196942;28;20025;-80
2024/03/02 00:56:26;;;;;;;7.20;2.35;;;6.30;99.90;;;5.40;100.00;99110.53;4186811;28;20434;-79
2024/03/02 00:58:26;;;;;;;4.90;1.08;;;6.20;99.90;;;5.41;100.00;99101.69;4186599;28;20021;-80
2024/03/02 01:00:27;;;;;;;3.28;0.65;;;6.10;99.90;;;5.26;100.00;99087.63;4186808;28;20036;-79
2024/03/02 01:02:29;;;;;;;4.93;1.30;;;6.10;99.90;;;5.20;100.00;99087.47;4194661;28;20492;-79
2024/03/02 01:04:30;;;;;;;4.63;1.00;;;6.00;99.90;;;5.15;100.00;99102.81;4191633;28;20025;-79
2024/03/02 01:06:31;;;;;;;8.73;1.38;;;5.90;99.90;;;5.07;100.00;99085.34;4201546;28;20029;-79
2024/03/02 01:08:32;;;;;;;10.00;1.60;;;5.90;99.90;;;4.99;100.00;99078.28;4186624;28;20033;-80
2024/03/02 01:10:33;;;;;;;9.30;1.50;;;5.80;99.90;;;5.06;100.00;99088.94;4194268;28;20017;-79
2024/03/02 01:12:34;;;;;;;10.15;1.60;;;5.80;99.90;;;4.99;100.00;99077.47;4195091;28;20074;-79
2024/03/02 01:14:35;;;;;;;6.90;1.20;;;5.80;99.90;;;4.99;100.00;99083.53;4188631;28;20029;-79
2024/03/02 01:16:35;;;;;;;11.75;2.35;;;5.80;99.90;;;4.96;100.00;99076.00;4186497;28;20060;-79
2024/03/02 01:18:36;;;;;;;9.20;2.33;;;5.80;99.90;;;4.99;100.00;99077.47;4187470;28;20029;-79
2024/03/02 01:20:37;;;;;;;5.20;1.42;;;5.80;99.90;;;4.93;100.00;99078.13;4187616;28;20043;-80
2024/03/02 01:22:38;;;;;;;15.57;1.95;;;5.70;99.90;;;4.96;100.00;99080.41;4188511;28;20378;-79
2024/03/02 01:24:39;;;;;;;8.40;1.38;;;5.80;99.90;;;4.93;100.00;99081.56;4187646;28;20074;-80
2024/03/02 01:26:40;;;;;;;10.38;2.60;;;5.80;99.90;;;4.95;100.00;99086.63;4194994;28;20025;-79
2024/03/02 01:28:40;;;;;;;14.63;1.88;;;5.70;99.90;;;4.92;100.00;99076.50;4202947;28;20025;-80
2024/03/02 01:30:42;;;;;;;12.05;1.67;;;5.70;99.90;;;4.96;100.00;99096.09;4204037;28;20021;-79
2024/03/02 01:32:43;;;;;;;12.48;2.60;;;5.80;99.90;;;5.13;100.00;99086.50;4186112;28;20136;-78
2024/03/02 01:34:44;;;;;;;11.70;2.17;;;5.90;99.90;;;5.38;100.00;99054.97;4196601;28;20049;-79
2024/03/02 01:36:44;;;;;;;13.50;1.98;;;6.00;99.90;;;5.47;100.00;99051.34;4188599;28;20021;-79
2024/03/02 01:38:45;;;;;;;25.73;3.13;;;6.10;99.90;;;5.52;100.00;99050.88;4187685;28;20029;-80
2024/03/02 01:40:46;;;;;;;8.43;2.28;;;6.20;99.90;;;5.40;100.00;99057.44;4186124;28;20032;-80
2024/03/02 01:42:47;;;;;;;11.85;3.25;;;6.20;99.90;;;5.36;100.00;99058.72;4192524;28;20036;-80
2024/03/02 01:44:48;;;;;;;14.20;1.63;;;6.10;99.90;;;5.24;100.00;99058.25;4194304;28;20116;-79
2024/03/02 01:46:50;;;;;;;12.23;2.67;;;6.00;99.90;;;5.14;100.00;99060.19;4196066;28;20021;-80
2024/03/02 01:48:51;;;;;;;7.55;2.97;;;6.00;99.90;;;5.07;100.00;99061.00;4186104;28;20055;-79
2024/03/02 01:50:52;;;;;;;14.10;3.45;;;5.90;99.90;;;4.96;100.00;99072.56;4187236;28;20543;-79
2024/03/02 01:52:53;;;;;;;12.38;2.80;;;5.80;99.90;;;4.89;100.00;99061.97;4190705;28;20025;-79
2024/03/02 01:54:54;;;;;;;9.90;2.03;;;5.70;99.90;;;4.86;100.00;99056.25;4189656;28;20040;-79
2024/03/02 01:56:55;;;;;;;12.18;2.92;;;5.70;99.90;;;4.81;100.00;99051.47;4187186;28;20035;-79
2024/03/02 01:58:56;;;;;;;10.57;2.60;;;5.70;99.90;;;4.88;100.00;99047.25;4187432;28;20028;-80
2024/03/02 02:00:57;;;;;;;8.48;2.03;;;5.70;99.90;;;4.85;100.00;99039.75;4187156;28;20064;-79
2024/03/02 02:02:58;;;;;;;11.15;2.22;;;5.60;99.90;;;4.86;100.00;99027.50;4190024;28;20028;-79
2024/03/02 02:04:59;;;;;;;12.73;2.80;;;5.60;99.90;;;4.87;100.00;99019.50;4202895;28;20131;-79
2024/03/02 02:07:00;;;;;;;14.50;2.83;;;5.70;99.90;;;4.84;100.00;99022.44;4185781;28;20040;-79
2024/03/02 02:09:01;;;;;;;15.68;2.50;;;5.70;99.90;;;4.77;100.00;99012.81;4202349;28;20147;-79
2024/03/02 02:11:02;;;;;;;9.93;2.83;;;5.60;99.90;;;4.74;100.00;99010.50;4187028;28;20472;-79
2024/03/02 02:13:03;;;;;;;12.25;2.08;;;5.50;99.90;;;4.78;100.00;99009.22;4188867;28;20028;-80
2024/03/02 02:15:30;;;;;;;11.43;2.55;;;5.50;99.90;;;4.79;100.00;99013.44;4185674;28;20448;-79
2024/03/02 02:17:31;;;;;;;10.32;2.10;;;5.50;99.90;;;4.74;100.00;99008.72;4186787;28;20021;-79
2024/03/02 02:19:32;;;;;;;8.95;2.13;;;5.50;99.90;;;4.80;100.00;99007.25;4168863;28;20094;-79
2024/03/02 02:21:33;;;;;;;13.70;4.60;;;5.50;99.90;;;4.79;100.00;99001.22;4186914;28;20029;-79
2024/03/02 02:23:34;;;;;;;9.48;4.20;;;5.60;99.90;;;4.79;100.00;98997.78;4194356;28;20408;-79
2024/03/02 02:25:35;;;;;;;10.70;3.42;;;5.60;99.90;;;4.82;100.00;98995.66;4190995;28;20044;-79
2024/03/02 02:27:36;;;;;;;12.38;4.68;;;5.60;99.90;;;4.80;100.00;98989.78;4201468;28;20514;-79
2024/03/02 02:29:37;;;;;;;10.57;3.90;;;5.60;99.90;;;4.79;100.00;98992.56;4203144;28;20033;-79
2024/03/02 02:31:41;;;;;;;9.88;4.60;;;5.60;99.90;;;4.72;100.00;98987.16;4203185;28;20128;-79
2024/03/02 02:33:43;;;;;;;;;;;5.60;99.90;;;4.66;100.00;98993.03;4201819;28;20060;-79
2024/03/02 02:35:43;;;;;;;19.67;9.73;;;5.50;99.90;;;4.62;100.00;98993.53;4187064;28;19938;-79
2024/03/02 02:37:47;;;;;;;20.77;7.10;;;5.50;99.90;;;4.56;100.00;98983.72;4190808;28;20020;-79
2024/03/02 02:39:47;;;;;;;13.02;5.78;;;5.40;99.90;;;4.54;100.00;98981.25;4209375;28;20099;-79
2024/03/02 02:41:49;;;;;;;18.48;5.82;;;5.40;99.90;;;4.55;100.00;98982.06;4185099;28;20025;-79
2024/03/02 02:43:50;;;;;;;15.95;7.93;;;5.40;99.90;;;4.55;100.00;98982.06;4200705;28;20078;-79
2024/03/02 02:45:50;;;;;;;11.85;5.20;;;5.40;99.90;;;4.58;100.00;98984.34;4202856;28;20020;-79
2024/03/02 02:47:51;;;;;;;12.05;5.55;;;5.30;99.90;;;4.59;100.00;98981.59;4201869;28;20035;-79
2024/03/02 02:49:52;;;;;;;14.25;7.05;;;5.40;99.90;;;4.61;100.00;98981.44;4201235;28;20035;-79
2024/03/02 02:51:53;;;;;;;23.85;8.95;;;5.40;99.90;;;4.62;100.00;98977.84;4218216;28;20465;-79
2024/03/02 02:53:54;;;;;;;11.48;2.90;;;5.40;99.90;;;4.57;100.00;98969.69;4201426;28;20025;-79
2024/03/02 02:55:55;;;;;;;7.47;2.28;;;5.40;99.90;;;4.56;100.00;98963.66;4201527;28;20568;-79
2024/03/02 02:57:56;;;;;;;5.60;1.63;;;5.40;99.90;;;4.58;100.00;98976.53;4201529;28;20033;-79
2024/03/02 02:59:57;;;;;;;8.45;1.95;;;5.40;99.90;;;4.49;100.00;98967.88;4202531;28;20025;-79
2024/03/02 03:01:57;;;;;;;12.75;1.92;;;5.40;99.90;;;4.52;100.00;98962.31;4201442;28;20029;-79
2024/03/02 03:03:58;;;;;;;8.43;1.58;;;5.40;99.90;;;4.55;100.00;98961.19;4200832;28;20037;-79
2024/03/02 03:05:59;;;;;;;5.03;1.45;;;5.40;99.90;;;4.54;100.00;98949.13;4189992;28;20041;-79
2024/03/02 03:08:00;;;;;;;8.35;2.08;;;5.40;99.90;;;4.60;100.00;98943.25;4198658;28;20025;-79
2024/03/02 03:10:01;;;;;;;8.15;1.63;;;5.40;99.90;;;4.72;100.00;98949.78;4201298;28;20029;-79
2024/03/02 03:12:02;;;;;;;6.93;2.17;;;5.50;99.90;;;4.79;100.00;98950.75;4202460;28;20024;-79
2024/03/02 03:14:04;;;;;;;5.57;1.73;;;5.50;99.90;;;4.83;100.00;98939.00;4191427;28;20032;-79
2024/03/02 03:16:05;;;;;;;9.25;2.45;;;5.60;99.90;;;4.89;100.00;98933.13;4184542;28;20104;-79
2024/03/02 03:18:10;;;;;;;10.52;2.10;;;5.70;99.90;;;4.94;100.00;98933.44;4185982;28;20029;-79
2024/03/02 03:20:11;;;;;;;9.02;2.10;;;5.70;99.90;;;4.93;100.00;98926.59;4185597;28;20025;-79
2024/03/02 03:22:12;;;;;;;10.70;1.88;;;5.80;99.90;;;4.94;100.00;98917.78;4167976;28;20033;-79
2024/03/02 03:24:12;;;;;;;10.05;2.83;;;5.70;99.90;;;4.96;100.00;98926.25;4184247;28;20074;-79
2024/03/02 03:26:13;;;;;;;8.55;1.80;;;5.80;99.90;;;4.95;100.00;98932.47;4188444;28;20032;-79
2024/03/02 03:28:14;;;;;;;14.93;2.08;;;5.80;99.90;;;4.99;100.00;98928.53;4202145;28;20031;-79
2024/03/02 03:30:15;;;;;;;7.63;2.25;;;5.80;99.90;;;5.05;100.00;98935.72;4202171;28;20054;-79
2024/03/02 03:32:16;;;;;;;5.93;1.10;;;5.90;99.90;;;5.18;100.00;98951.72;4202010;28;20476;-79
2024/03/02 03:34:17;;;;;;;9.10;1.50;;;5.90;99.90;;;5.15;100.00;98944.22;4196995;28;20072;-79
2024/03/02 03:36:18;;;;;;;9.15;2.08;;;6.00;99.90;;;5.16;100.00;98940.63;4185559;28;20028;-79
2024/03/02 03:38:19;;;;;;;9.48;1.90;;;5.90;99.90;;;5.26;100.00;98946.47;4186790;28;20017;-80
2024/03/02 03:40:20;;;;;;;11.40;2.28;;;5.90;99.90;;;5.26;100.00;98948.28;4197552;28;20028;-79
2024/03/02 03:42:20;;;;;;;6.97;1.70;;;6.00;99.90;;;5.35;100.00;98950.72;4184672;28;20024;-79
2024/03/02 03:44:21;;;;;;;8.30;1.67;;;6.10;99.90;;;5.40;100.00;98943.22;4193036;28;20021;-79
2024/03/02 03:46:22;;;;;;;9.75;2.08;;;6.10;99.90;;;5.61;100.00;98945.28;4185539;28;20032;-80
2024/03/02 03:48:23;;;;;;;6.90;1.45;;;6.20;99.90;;;5.67;100.00;98938.53;4185116;28;20025;-80
2024/03/02 03:50:24;;;;;;;10.52;1.63;;;6.30;99.90;;;5.68;100.00;98927.09;4185271;28;20040;-80
2024/03/02 03:52:24;;;;;;;7.90;2.13;;;6.30;99.90;;;5.72;100.00;98923.16;4185406;28;20025;-80
2024/03/02 03:54:25;;;;;;;7.47;1.80;;;6.30;99.90;;;5.68;100.00;98927.09;4191071;28;20499;-80
2024/03/02 03:56:26;;;;;;;5.05;2.00;;;6.40;99.90;;;5.71;100.00;98916.28;4185411;28;20021;-80
2024/03/02 03:58:27;;;;;;;12.85;2.40;;;6.40;99.90;;;5.70;100.00;98912.88;4183953;28;20072;-79
2024/03/02 04:00:28;;;;;;;7.85;2.17;;;6.40;99.90;;;5.67;100.00;98907.16;4185340;28;20032;-80
2024/03/02 04:02:29;;;;;;;8.45;1.58;;;6.40;99.90;;;5.51;100.00;98881.88;4185259;28;20036;-80
2024/03/02 04:04:29;;;;;;;8.70;1.33;;;6.30;99.90;;;5.43;100.00;98898.41;4173567;28;20504;-80
2024/03/02 04:06:31;;;;;;;9.30;1.27;;;6.20;99.90;;;5.28;100.00;98894.88;4185034;28;20025;-80
2024/03/02 04:08:32;;;;;;;7.70;1.35;;;6.10;99.90;;;5.09;100.00;98884.78;4184019;28;20021;-79
2024/03/02 04:10:34;;;;;;;6.15;1.20;;;5.90;99.90;;;4.99;100.00;98884.13;4183998;28;20488;-79
2024/03/02 04:12:38;;;;;;;2.28;0.93;;;5.80;99.90;;;4.83;100.00;98876.31;4185135;28;20021;-79
2024/03/02 04:14:42;;;;;;;10.73;1.48;;;5.70;99.90;;;4.73;100.00;98873.06;4184639;28;20033;-79
2024/03/02 04:16:43;;;;;;;8.20;1.40;;;5.60;99.90;;;4.63;100.00;98875.03;4185231;28;20048;-79
2024/03/02 04:18:44;;;;;;;5.88;2.38;;;5.50;99.90;;;4.66;100.00;98879.94;4183782;28;20033;-79
2024/03/02 04:20:44;;;;;;;8.13;3.08;;;5.40;99.90;;;4.55;100.00;98875.84;4182368;28;20063;-79
2024/03/02 04:22:45;;;;;;;8.93;1.67;;;5.40;99.90;;;4.58;100.00;98898.19;4203788;28;20024;-80
2024/03/02 04:24:46;;;;;;;8.90;1.60;;;5.40;99.90;;;4.52;100.00;98891.00;4200076;28;20032;-79
2024/03/02 04:26:47;;;;;;;10.55;1.15;;;5.30;99.90;;;4.50;100.00;98887.75;4196825;28;20033;-79
2024/03/02 04:28:48;;;;;;;8.93;2.13;;;5.30;99.90;;;4.50;100.00;98882.53;4205147;28;20020;-80
2024/03/02 04:30:49;;;;;;;8.82;1.80;;;5.30;99.90;;;4.47;100.00;98891.50;4203807;28;20025;-80
2024/03/02 04:32:50;;;;;;;6.28;1.35;;;5.30;99.90;;;4.41;100.00;98892.97;4204949;28;20021;-80
2024/03/02 04:34:50;;;;;;;7.90;2.17;;;5.30;99.90;;;4.35;100.00;98884.97;4195754;28;20546;-79
2024/03/02 04:36:51;;;;;;;9.40;2.40;;;5.30;99.90;;;4.31;100.00;98894.09;4198237;28;20071;-80
2024/03/02 04:38:52;;;;;;;6.15;1.70;;;5.20;99.90;;;4.27;100.00;98891.00;4206642;28;20492;-79
2024/03/02 04:40:53;;;;;;;6.10;1.83;;;5.10;99.90;;;4.22;100.00;98882.00;4200704;28;20055;-79
2024/03/02 04:42:54;;;;;;;11.27;2.53;;;5.10;99.90;;;4.15;100.00;98875.81;4189412;28;20476;-79
2024/03/02 04:44:55;;;;;;;6.13;1.10;;;5.00;99.90;;;4.19;100.00;98884.94;4192942;28;20036;-79
2024/03/02 04:46:56;;;;;;;11.98;2.85;;;5.00;99.90;;;4.21;100.00;98875.19;4186810;28;20520;-80
2024/03/02 04:48:57;;;;;;;10.15;1.20;;;5.00;99.90;;;4.15;100.00;98865.38;4173916;28;20451;-80
2024/03/02 04:50:57;;;;;;;9.07;1.10;;;5.10;99.90;;;4.22;100.00;98888.06;4196558;28;20032;-79
2024/03/02 04:52:58;;;;;;;6.70;1.55;;;5.10;99.90;;;4.19;100.00;98882.34;4189601;28;20025;-80
2024/03/02 04:57:18;;;;;;;6.30;2.08;;;5.10;99.90;;;4.12;100.00;98876.94;4188172;28;20064;-80
2024/03/02 04:59:20;;;;;;;5.90;1.60;;;5.00;99.90;;;4.13;100.00;98867.31;4186932;28;20033;-80
2024/03/02 05:01:21;;;;;;;5.07;1.60;;;5.00;99.90;;;4.13;100.00;98878.56;4198774;28;20119;-79
2024/03/02 05:03:21;;;;;;;9.43;1.52;;;5.00;99.90;;;4.11;100.00;98877.09;4190098;28;20020;-80
2024/03/02 05:05:22;;;;;;;6.47;1.17;;;5.00;99.90;;;4.05;100.00;98875.97;4188045;28;20032;-80
2024/03/02 05:07:23;;;;;;;4.25;1.13;;;4.90;99.90;;;4.11;100.00;98875.31;4186718;28;20037;-79
2024/03/02 05:09:24;;;;;;;8.45;1.63;;;5.00;99.90;;;4.08;100.00;98872.22;4198388;28;20025;-80
2024/03/02 05:13:38;;;;;;;7.10;1.55;;;5.00;99.90;;;4.24;100.00;98880.88;4193204;28;20072;-80
2024/03/02 05:15:38;;;;;;;7.20;2.17;;;5.00;99.90;;;4.22;100.00;98882.00;4194677;28;20028;-80
2024/03/02 05:17:42;;;;;;;11.90;2.20;;;5.10;99.90;;;4.12;100.00;98876.94;4187939;28;20054;-80
2024/03/02 05:19:43;;;;;;;7.65;1.40;;;5.10;99.90;;;4.15;100.00;98876.63;4186411;28;20121;-80
2024/03/02 05:21:44;;;;;;;9.60;1.92;;;5.10;99.90;;;4.11;100.00;98871.91;4187720;28;20033;-80
2024/03/02 05:23:45;;;;;;;4.78;1.35;;;5.00;99.90;;;4.18;100.00;98878.91;4193781;28;20451;-80
2024/03/02 05:25:46;;;;;;;6.78;1.33;;;5.10;99.90;;;4.18;100.00;98872.91;4191046;28;20029;-80
2024/03/02 05:27:47;;;;;;;8.55;1.25;;;5.10;99.90;;;4.25;100.00;98881.69;4189639;28;20028;-79
2024/03/02 05:29:48;;;;;;;7.78;2.03;;;5.10;99.90;;;4.30;100.00;98885.44;4203952;28;20494;-80
2024/03/02 05:31:49;;;;;;;9.05;2.13;;;5.20;99.90;;;4.31;100.00;98881.88;4204535;28;20032;-79
2024/03/02 05:33:49;;;;;;;10.32;2.30;;;5.20;99.90;;;4.41;100.00;98876.50;4202197;28;20048;-80
2024/03/02 05:35:50;;;;;;;6.50;1.05;;;5.20;99.90;;;4.51;100.00;98887.56;4188166;28;20480;-80
2024/03/02 05:37:51;;;;;;;9.02;1.25;;;5.30;99.90;;;4.56;100.00;98879.28;4186438;28;20496;-80
2024/03/02 05:39:52;;;;;;;9.20;1.45;;;5.40;99.90;;;4.66;100.00;98879.94;4196025;28;20033;-80
2024/03/02 05:41:53;;;;;;;10.57;1.83;;;5.50;99.90;;;4.76;100.00;98880.56;4190797;28;20028;-80
2024/03/02 05:43:54;;;;;;;5.82;1.20;;;5.50;99.90;;;4.86;100.00;98889.88;4192657;28;20028;-81
2024/03/02 05:45:55;;;;;;;10.05;2.22;;;5.60;99.90;;;4.99;100.00;98903.22;4193822;28;20025;-80
2024/03/02 05:47:56;;;;;;;11.20;1.92;;;5.70;99.90;;;5.06;100.00;98898.16;4185964;28;20036;-80
2024/03/02 05:49:57;;;;;;;7.97;2.25;;;5.80;99.90;;;5.18;100.00;98904.69;4198259;28;20480;-80
2024/03/02 05:51:57;;;;;;;9.18;2.08;;;5.90;99.90;;;5.21;100.00;98898.31;4186407;28;20511;-80
2024/03/02 05:53:58;;;;;;;10.18;2.22;;;6.00;99.90;;;5.19;100.00;98895.88;4189062;28;20024;-81
2024/03/02 05:55:59;;;;;;;8.18;1.50;;;6.00;99.90;;;5.19;100.00;98895.88;4195086;28;20029;-80
2024/03/02 06:00:09;;;;;;;11.93;1.50;;;5.90;99.90;;;5.10;100.00;98880.38;4186996;28;20096;-80
2024/03/02 06:02:09;;;;;;;8.85;1.38;;;5.90;99.90;;;4.96;100.00;98880.06;4185884;28;20108;-80
2024/03/02 06:04:10;;;;;;;9.35;0.80;;;5.90;99.90;;;4.95;100.00;98890.69;4185853;28;20029;-79
2024/03/02 06:06:11;;;;;;;7.90;1.30;;;5.80;99.90;;;4.92;100.00;98891.00;4186991;28;20381;-79
2024/03/02 06:08:12;;;;;;;6.53;1.20;;;5.80;99.90;;;4.92;100.00;98901.47;4185893;28;20072;-79
2024/03/02 06:10:14;;;;;;;7.93;1.73;;;5.80;99.90;;;4.88;100.00;98894.91;4187045;28;20029;-79
2024/03/02 06:12:15;;;;;;;8.60;1.90;;;5.70;99.90;;;4.87;100.00;98888.06;4185731;28;20025;-80
2024/03/02 06:14:15;;;;;;;7.10;1.90;;;5.70;99.90;;;4.86;100.00;98891.66;4197570;28;20033;-79
2024/03/02 06:16:16;;;;;;;7.80;1.35;;;5.70;99.90;;;4.84;100.00;98883.16;4187143;28;20044;-80
2024/03/02 06:18:17;;;;;;;9.25;1.10;;;5.70;99.90;;;4.80;100.00;98887.91;4185654;28;20013;-79
2024/03/02 06:20:18;;;;;;;11.57;1.70;;;5.60;99.90;;;4.73;100.00;98891.34;4194539;28;20029;-79
2024/03/02 06:22:19;;;;;;;7.82;1.42;;;5.50;99.90;;;4.62;100.00;98889.06;4189961;28;20017;-79
2024/03/02 06:24:19;;;;;;;5.25;1.10;;;5.40;99.90;;;4.52;100.00;98888.41;4195748;28;20033;-79
2024/03/02 06:26:20;;;;;;;6.22;1.50;;;5.30;99.90;;;4.44;100.00;98889.22;4191344;28;20024;-79
2024/03/02 06:28:21;;;;;;;7.28;1.33;;;5.30;99.90;;;4.35;100.00;98883.19;4203183;28;20033;-80
2024/03/02 06:30:22;;;;;;;6.40;1.15;;;5.20;99.90;;;4.26;100.00;98886.75;4202064;28;20032;-80
2024/03/02 06:32:25;;;;;;;8.20;1.90;;;5.10;99.90;;;4.16;100.00;98874.81;4185333;28;20033;-80
2024/03/02 06:34:26;;;;;;;8.65;0.90;;;5.00;99.90;;;4.13;100.00;98886.41;4196515;28;20142;-80
2024/03/02 06:36:27;;;;;;;5.95;1.55;;;4.90;99.90;;;4.18;100.00;98886.72;4186494;28;20029;-80
2024/03/02 06:38:28;;;;;;;3.97;1.67;;;5.00;99.90;;;4.30;100.00;98882.84;4185268;28;20028;-80
2024/03/02 06:40:29;;;;;;;9.35;1.27;;;5.10;99.90;;;4.40;100.00;98893.94;4186230;28;20107;-80
2024/03/02 06:42:33;;;;;;;8.00;1.40;;;5.10;99.90;;;4.49;100.00;98884.31;4185500;28;20511;-79
2024/03/02 06:44:34;;;;;;;11.82;1.30;;;5.20;99.90;;;4.60;100.00;98896.25;4191117;28;20039;-79
2024/03/02 06:46:35;;;;;;;8.32;1.90;;;5.30;99.90;;;4.63;100.00;98882.88;4186344;28;20029;-79
2024/03/02 06:48:36;;;;;;;10.65;1.20;;;5.40;99.90;;;4.69;100.00;98882.22;4168087;28;20037;-80
2024/03/02 06:50:37;;;;;;;5.60;1.08;;;5.40;99.90;;;4.67;100.00;98886.78;4185072;28;20401;-80
2024/03/02 06:52:38;;;;;;;10.00;1.92;;;5.40;99.90;;;4.65;100.00;98892.16;4192769;28;20040;-79
2024/03/02 06:54:39;;;;;;;8.10;3.20;;;5.40;99.90;;;4.61;100.00;98893.47;4191489;28;20021;-79
2024/03/02 06:56:40;;;;;;;14.98;2.50;;;5.40;99.90;;;4.58;100.00;98890.38;4168506;28;20421;-80
2024/03/02 06:58:42;;;;;;;6.45;1.75;;;5.40;99.90;;;4.62;100.00;98900.34;4184976;28;20436;-80
2024/03/02 07:00:47;;;;;;;8.98;1.85;;;5.40;99.90;;;4.63;100.00;98885.50;4184962;28;20021;-80
2024/03/02 07:02:48;;;;;;;5.82;1.45;;;5.50;99.90;;;4.72;100.00;98900.19;4185318;28;20488;-80
2024/03/02 07:04:51;;;;;;;5.15;1.23;;;5.50;99.90;;;4.76;100.00;98904.88;4197266;28;20020;-80
2024/03/02 07:06:51;;;;;;;6.28;1.20;;;5.50;99.90;;;4.77;100.00;98897.88;4186088;28;20499;-81
2024/03/02 07:08:52;;;;;;;8.15;2.20;;;5.60;99.90;;;4.82;100.00;98901.63;4184850;28;20029;-79
2024/03/02 07:10:53;;;;;;;8.38;1.52;;;5.70;99.90;;;4.93;100.00;98905.69;4185970;28;20071;-80
2024/03/02 07:12:54;;;;;;;10.60;1.50;;;5.70;99.90;;;4.94;100.00;98875.97;4184670;28;20074;-80
2024/03/02 07:17:04;;;;;;;10.18;2.67;;;5.80;99.90;;;5.09;100.00;98883.94;4193124;28;20423;-80
2024/03/02 07:19:05;;;;;;;9.63;2.50;;;5.80;99.90;;;5.09;100.00;98897.00;4206115;28;20029;-79
2024/03/02 07:21:10;;;;;;;9.77;3.78;;;5.80;99.90;;;5.00;100.00;98893.59;4185617;28;20103;-80
2024/03/02 07:23:11;;;;;;;9.20;1.85;;;5.80;99.90;;;4.91;100.00;98899.81;4185473;28;20059;-79
2024/03/02 07:25:12;;;;;;;5.72;1.77;;;5.70;99.90;;;4.84;100.00;98904.06;4195552;28;20040;-79
2024/03/02 07:27:14;;;;;;;6.63;1.92;;;5.60;99.90;;;4.75;100.00;98898.03;4200776;28;20078;-79
2024/03/02 07:29:15;;;;;;;4.78;1.50;;;5.50;99.90;;;4.75;100.00;98910.28;4200642;28;20104;-79
2024/03/02 07:31:16;;;;;;;5.95;2.00;;;5.50;99.90;;;4.77;100.00;98908.31;4200694;28;20044;-79
2024/03/02 07:33:17;;;;;;;10.32;1.40;;;5.50;99.90;;;4.83;100.00;98910.28;4196630;28;20050;-79
2024/03/02 07:35:18;;;;;;;5.18;1.55;;;5.50;99.90;;;4.93;100.00;98911.72;4188994;28;20040;-79
2024/03/02 07:37:19;;;;;;;6.65;1.55;;;5.60;99.90;;;5.04;100.00;98910.59;4182504;28;20025;-79
2024/03/02 07:39:21;;;;;;;9.15;2.10;;;5.70;99.90;;;5.06;100.00;98899.97;4185768;28;20071;-79
2024/03/02 07:41:22;;;;;;;4.65;1.63;;;5.70;99.90;;;5.14;100.00;98911.22;4184206;28;20032;-79
2024/03/02 07:43:23;;;;;;;4.88;1.70;;;5.70;99.90;;;5.06;100.00;98908.63;4187560;28;20025;-78
2024/03/02 07:45:24;;;;;;;19.90;6.85;;;5.80;99.90;;;5.12;100.00;98917.59;4186810;28;20033;-79
2024/03/02 07:47:24;;;;;;;15.30;6.30;;;5.80;99.90;;;5.16;100.00;98909.28;4200771;28;20028;-79
2024/03/02 07:49:25;;;;;;;20.67;5.82;;;5.80;99.90;;;5.26;100.00;98912.50;4183885;28;20416;-79
2024/03/02 07:51:26;;;;;;;18.13;5.07;;;5.90;99.90;;;5.36;100.00;98923.59;4197359;28;20025;-79
2024/03/02 07:53:27;;;;;;;21.63;6.43;;;6.00;99.90;;;5.44;100.00;98923.56;4186299;28;20021;-79
2024/03/02 07:55:28;;;;;;;19.23;6.78;;;6.10;99.90;;;5.51;100.00;98919.31;4184194;28;20033;-79
2024/03/02 07:57:29;;;;;;;12.50;2.95;;;6.10;99.90;;;5.59;100.00;98927.13;4184090;28;20582;-78
2024/03/02 07:59:29;;;;;;;9.10;2.53;;;6.20;99.90;;;5.57;100.00;98926.47;4194910;28;20032;-78
2024/03/02 08:01:32;;;;;;;7.88;2.13;;;6.20;99.90;;;5.54;100.00;98931.22;4186814;28;20447;-79
2024/03/02 08:03:34;;;;;;;9.98;3.65;;;6.20;99.90;;;5.50;100.00;98924.69;4191607;28;20472;-76
2024/03/02 08:05:35;;;;;;;9.73;3.60;;;6.20;99.90;;;5.45;100.00;98922.59;4209098;28;20558;-77
2024/03/02 08:07:35;;;;;;;10.93;3.13;;;6.10;99.90;;;5.43;100.00;98931.59;4167025;28;20060;-77
2024/03/02 08:09:36;;;;;;;9.43;2.38;;;6.10;99.90;;;5.41;100.00;98926.50;4197438;28;20044;-77
2024/03/02 08:11:38;;;;;;;8.38;1.90;;;6.10;99.90;;;5.38;100.00;98926.03;4197246;28;20035;-77
2024/03/02 08:13:39;;;;;;;5.38;1.48;;;6.10;99.90;;;5.40;100.00;98922.28;4187203;28;20020;-76
2024/03/02 08:15:40;;;;;;;5.47;1.15;;;6.10;99.90;;;5.42;100.00;98925.53;4206325;28;20074;-78
2024/03/02 08:17:48;;;;;;;4.63;1.30;;;6.10;99.90;;;5.45;100.00;98922.59;4184630;28;20029;-78
2024/03/02 08:19:49;;;;;;;8.48;1.45;;;6.10;99.90;;;5.51;100.00;98929.75;4183560;28;20029;-78
2024/03/02 08:21:50;;;;;;;7.57;2.47;;;6.20;99.90;;;5.62;100.00;98930.38;4184701;28;20037;-79
2024/03/02 08:23:51;;;;;;;11.75;3.95;;;6.30;99.90;;;5.76;100.00;98921.84;4189865;28;20032;-78
2024/03/02 08:25:52;;;;;;;7.78;3.45;;;6.40;99.90;;;5.88;100.00;98934.41;4187985;28;20091;-80
2024/03/02 08:27:53;;;;;;;8.68;3.30;;;6.50;99.90;;;5.90;100.00;98929.00;4201749;28;20033;-81
2024/03/02 08:29:54;;;;;;;4.70;1.45;;;6.60;99.90;;;5.87;100.00;98938.00;4201577;28;20033;-83
2024/03/02 08:31:54;;;;;;;6.00;1.83;;;6.60;99.90;;;5.93;100.00;98944.34;4200441;28;20082;-82
2024/03/02 08:33:56;;;;;;;39.20;25.05;;;6.60;99.90;;;5.95;100.00;98924.88;4199917;28;20556;-82
2024/03/02 08:35:57;;;;;;;27.27;14.23;;;6.70;99.90;;;6.07;100.00;98933.16;4196448;28;20082;-81
2024/03/02 08:37:58;;;;;;;25.58;14.82;;;6.70;99.90;;;6.14;100.00;98934.13;4183981;28;20027;-81
2024/03/02 08:39:59;;;;;;;18.27;7.60;;;6.80;99.90;;;6.22;100.00;98944.53;4194353;28;20024;-81
2024/03/02 08:42:00;;;;;;;20.40;9.82;;;6.90;99.90;;;6.26;100.00;98935.38;4186613;28;20032;-81